Time;durP1;ratioP1;P1;durP2;ratioP2;P2;SDS_P1;SDS_P2;PMS_P1;PMS_P2;Temp;Humidity;BMP_temperature;BMP_pressure;BME280_temperature;BME280_humidity;BME280_pressure;Samples;Min_cycle;Max_cycle;Signal;HPM_P1;HPM_P2
2023/08/18 00:02:24;;;;;;;;;;;;;;;23.09;44.59;100791.78;4868346;28;99003;-75
2023/08/18 00:04:51;;;;;;;;;;;;;;;23.05;44.94;100790.84;4884354;28;98178;-75
2023/08/18 00:07:18;;;;;;;;;;;;;;;23.02;44.81;100788.78;4864217;28;99347;-72
2023/08/18 00:09:44;;;;;;;;;;;;;;;22.99;45.02;100779.31;4869292;28;100938;-72
2023/08/18 00:12:12;;;;;;;;;;;;;;;22.96;44.99;100787.44;4871593;28;99280;-75
2023/08/18 00:14:38;;;;;;;;;;;;;;;22.92;45.14;100789.25;4878266;28;98146;-76
2023/08/18 00:17:05;;;;;;;;;;;;;;;22.87;44.90;100787.50;4864343;28;99645;-76
2023/08/18 00:19:31;;;;;;;;;;;;;;;22.85;45.02;100789.00;4869954;28;98016;-73
2023/08/18 00:21:58;;;;;;;;;;;;;;;22.81;44.96;100788.06;4866628;28;99782;-75
2023/08/18 00:24:24;;;;;;;;;;;;;;;22.76;44.95;100784.41;4885744;28;98396;-76
2023/08/18 00:26:53;;;;;;;;;;;;;;;22.72;45.06;100788.97;4879535;28;98489;-75
2023/08/18 00:29:19;;;;;;;;;;;;;;;22.69;45.02;100788.84;4864457;28;99902;-72
2023/08/18 00:31:46;;;;;;;;;;;;;;;22.65;44.91;100791.47;4884215;28;97935;-75
2023/08/18 00:34:13;;;;;;;;;;;;;;;22.61;44.95;100798.81;4897299;28;98469;-72
2023/08/18 00:36:39;;;;;;;;;;;;;;;22.55;45.00;100784.47;4873747;28;98194;-75
2023/08/18 00:39:05;;;;;;;;;;;;;;;22.51;44.88;100791.78;4880298;28;98298;-73
2023/08/18 00:41:32;;;;;;;;;;;;;;;22.47;45.22;100779.88;4858511;28;98359;-72
2023/08/18 00:43:59;;;;;;;;;;;;;;;22.44;44.96;100782.50;4867020;28;98366;-75
2023/08/18 00:46:27;;;;;;;;;;;;;;;22.43;45.01;100778.16;4864258;28;98847;-75
2023/08/18 00:48:53;;;;;;;;;;;;;;;22.41;44.99;100780.44;4867113;28;100545;-72
2023/08/18 00:51:21;;;;;;;;;;;;;;;22.38;45.02;100779.19;4867421;28;98154;-72
2023/08/18 00:53:48;;;;;;;;;;;;;;;22.37;44.91;100777.59;4875322;28;98265;-73
2023/08/18 00:56:14;;;;;;;;;;;;;;;22.34;45.10;100769.22;4881737;28;98149;-75
2023/08/18 00:58:40;;;;;;;;;;;;;;;22.29;45.04;100764.75;4881140;28;101280;-76
2023/08/18 01:01:07;;;;;;;;;;;;;;;22.25;45.02;100766.56;4850640;28;98759;-72
2023/08/18 01:03:33;;;;;;;;;;;;;;;22.23;45.07;100766.88;4864247;28;98005;-72
2023/08/18 01:05:59;;;;;;;;;;;;;;;22.22;44.89;100770.78;4864874;28;98124;-75
2023/08/18 01:08:28;;;;;;;;;;;;;;;22.22;45.13;100779.03;4866878;28;99750;-75
2023/08/18 01:11:01;;;;;;;;;;;;;;;22.22;45.22;100781.75;4896305;28;98032;-73
2023/08/18 01:13:37;;;;;;;;;;;;;;;22.22;45.04;100780.97;4901605;28;98226;-76
2023/08/18 01:16:04;;;;;;;;;;;;;;;22.21;45.09;100776.63;4885835;28;98204;-73
2023/08/18 01:18:32;;;;;;;;;;;;;;;22.19;45.01;100779.69;4888033;28;98679;-72
2023/08/18 01:20:58;;;;;;;;;;;;;;;22.17;45.21;100771.00;4872902;28;98623;-75
2023/08/18 01:23:37;;;;;;;;;;;;;;;22.18;44.97;100769.84;4872584;28;98330;-75
2023/08/18 01:26:03;;;;;;;;;;;;;;;22.18;45.25;100766.31;4868472;28;98315;-76
2023/08/18 01:28:34;;;;;;;;;;;;;;;22.17;45.04;100764.72;4866792;28;98264;-76
2023/08/18 01:31:01;;;;;;;;;;;;;;;22.15;45.21;100756.81;4883290;28;99006;-72
2023/08/18 01:33:46;;;;;;;;;;;;;;;22.14;45.04;100759.91;4870159;28;99167;-75
2023/08/18 01:36:16;;;;;;;;;;;;;;;22.09;45.22;100763.63;4869918;28;98304;-76
2023/08/18 01:38:43;;;;;;;;;;;;;;;22.05;45.17;100760.75;4885082;28;98179;-72
2023/08/18 01:41:10;;;;;;;;;;;;;;;22.02;45.11;100760.63;4852336;28;98451;-76
2023/08/18 01:43:37;;;;;;;;;;;;;;;21.99;45.20;100770.31;4870531;28;98779;-72
2023/08/18 01:46:03;;;;;;;;;;;;;;;21.97;45.31;100756.16;4871379;28;99493;-75
2023/08/18 01:48:30;;;;;;;;;;;;;;;21.94;45.25;100762.31;4882592;28;98169;-75
2023/08/18 01:50:58;;;;;;;;;;;;;;;21.93;45.19;100755.22;4882129;28;98321;-75
2023/08/18 01:53:24;;;;;;;;;;;;;;;21.93;45.24;100759.88;4872950;28;98527;-73
2023/08/18 01:55:50;;;;;;;;;;;;;;;21.91;45.21;100757.47;4873242;28;119490;-72
2023/08/18 01:58:17;;;;;;;;;;;;;;;21.89;45.15;100765.25;4869804;28;98199;-72
2023/08/18 02:00:44;;;;;;;;;;;;;;;21.87;45.30;100770.28;4884422;28;98318;-75
2023/08/18 02:03:10;;;;;;;;;;;;;;;21.86;45.28;100768.69;4866319;28;98956;-72
2023/08/18 02:05:40;;;;;;;;;;;;;;;21.85;45.23;100769.81;4850336;28;98117;-72
2023/08/18 02:08:07;;;;;;;;;;;;;;;21.83;45.25;100763.84;4891125;28;97922;-72
2023/08/18 02:10:34;;;;;;;;;;;;;;;21.81;45.30;100766.94;4888583;28;97842;-75
2023/08/18 02:13:02;;;;;;;;;;;;;;;21.79;45.13;100768.41;4863358;28;99630;-75
2023/08/18 02:15:29;;;;;;;;;;;;;;;21.76;45.37;100769.88;4869675;28;98254;-72
2023/08/18 02:17:56;;;;;;;;;;;;;;;21.74;45.38;100768.63;4888410;28;98649;-72
2023/08/18 02:20:24;;;;;;;;;;;;;;;21.72;45.30;100770.88;4890127;28;98128;-75
2023/08/18 02:22:51;;;;;;;;;;;;;;;21.69;45.38;100764.16;4888747;28;98389;-75
2023/08/18 02:25:21;;;;;;;;;;;;;;;21.69;45.34;100764.16;4870815;28;98173;-72
2023/08/18 02:27:47;;;;;;;;;;;;;;;21.67;45.40;100760.13;4868785;28;100015;-72
2023/08/18 02:30:13;;;;;;;;;;;;;;;21.67;45.19;100760.13;4888228;28;98057;-74
2023/08/18 02:32:40;;;;;;;;;;;;;;;21.64;45.35;100766.25;4863007;28;98284;-75
2023/08/18 02:35:07;;;;;;;;;;;;;;;21.64;45.36;100764.31;4888629;28;99480;-72
2023/08/18 02:37:33;;;;;;;;;;;;;;;21.63;45.37;100761.94;4869552;28;98045;-73
2023/08/18 02:40:00;;;;;;;;;;;;;;;21.59;45.43;100761.78;4864133;28;98364;-72
2023/08/18 02:42:26;;;;;;;;;;;;;;;21.56;45.38;100756.97;4872079;28;98081;-74
2023/08/18 02:44:52;;;;;;;;;;;;;;;21.53;45.37;100755.69;4895371;28;98449;-72
2023/08/18 02:47:19;;;;;;;;;;;;;;;21.51;45.45;100763.47;4864726;28;98006;-73
2023/08/18 02:49:47;;;;;;;;;;;;;;;21.47;45.32;100759.78;4870121;28;99269;-75
2023/08/18 02:52:13;;;;;;;;;;;;;;;21.46;45.40;100763.66;4865659;28;98196;-72
2023/08/18 02:54:41;;;;;;;;;;;;;;;21.41;45.38;100757.56;4883896;28;98455;-75
2023/08/18 02:57:07;;;;;;;;;;;;;;;21.36;45.42;100763.25;4884569;28;98166;-73
2023/08/18 02:59:34;;;;;;;;;;;;;;;21.32;45.42;100763.06;4865116;28;98178;-73
2023/08/18 03:02:01;;;;;;;;;;;;;;;21.29;45.53;100761.78;4866991;28;99774;-75
2023/08/18 03:04:28;;;;;;;;;;;;;;;21.26;45.60;100767.97;4860569;28;97962;-72
2023/08/18 03:06:55;;;;;;;;;;;;;;;21.24;45.64;100772.16;4871541;28;97966;-73
2023/08/18 03:09:21;;;;;;;;;;;;;;;21.22;45.60;100774.41;4863645;28;99682;-73
2023/08/18 03:11:47;;;;;;;;;;;;;;;21.21;45.66;100781.03;4900446;28;97990;-75
2023/08/18 03:14:15;;;;;;;;;;;;;;;21.20;45.56;100776.69;4887619;28;97998;-75
2023/08/18 03:16:42;;;;;;;;;;;;;;;21.18;45.64;100779.78;4888907;28;100123;-75
2023/08/18 03:19:11;;;;;;;;;;;;;;;21.15;45.50;100785.13;4872076;28;107112;-72
2023/08/18 03:21:38;;;;;;;;;;;;;;;21.12;45.51;100777.56;4872675;28;98416;-72
2023/08/18 03:24:05;;;;;;;;;;;;;;;21.09;45.59;100782.53;4885725;28;98496;-72
2023/08/18 03:26:31;;;;;;;;;;;;;;;21.07;45.58;100778.53;4872855;28;97942;-72
2023/08/18 03:28:58;;;;;;;;;;;;;;;21.03;45.63;100788.56;4876238;28;98364;-74
2023/08/18 03:31:25;;;;;;;;;;;;;;;20.99;45.54;100782.13;4849101;28;98301;-72
2023/08/18 03:33:52;;;;;;;;;;;;;;;20.95;45.72;100784.72;4883790;28;98607;-74
2023/08/18 03:36:18;;;;;;;;;;;;;;;20.93;45.70;100794.41;4884255;28;98199;-72
2023/08/18 03:38:45;;;;;;;;;;;;;;;20.89;45.67;100797.00;4866329;28;98032;-72
2023/08/18 03:41:12;;;;;;;;;;;;;;;20.87;45.65;100806.66;4894020;28;98259;-74
2023/08/18 03:43:40;;;;;;;;;;;;;;;20.85;45.71;100804.25;4865637;28;97993;-73
2023/08/18 03:46:25;;;;;;;;;;;;;;;20.86;45.70;100810.53;4851825;28;98171;-73
2023/08/18 03:48:51;;;;;;;;;;;;;;;20.85;45.66;100807.00;4885390;28;98739;-73
2023/08/18 03:51:17;;;;;;;;;;;;;;;20.85;45.61;100807.00;4869233;28;103916;-73
2023/08/18 03:53:43;;;;;;;;;;;;;;;20.82;45.79;100800.22;4887351;28;98383;-74
2023/08/18 03:56:10;;;;;;;;;;;;;;;20.82;45.62;100808.44;4884322;28;98292;-72
2023/08/18 03:58:36;;;;;;;;;;;;;;;20.88;45.68;100806.34;4881992;28;99486;-72
2023/08/18 04:01:06;;;;;;;;;;;;;;;20.93;45.75;100808.91;4893748;28;98059;-75
2023/08/18 04:03:35;;;;;;;;;;;;;;;20.98;45.68;100811.44;4886340;28;101335;-72
2023/08/18 04:06:05;;;;;;;;;;;;;;;21.02;45.67;100812.38;4881625;28;107980;-72
2023/08/18 04:08:39;;;;;;;;;;;;;;;21.05;45.68;100809.00;4862276;28;99514;-75
2023/08/18 04:11:05;;;;;;;;;;;;;;;21.09;45.50;100811.88;4895539;28;98139;-72
2023/08/18 04:13:31;;;;;;;;;;;;;;;21.13;45.68;100807.34;4866607;28;99837;-75
2023/08/18 04:15:57;;;;;;;;;;;;;;;21.18;45.50;100812.66;4884637;28;98115;-72
2023/08/18 04:18:24;;;;;;;;;;;;;;;21.21;45.56;100819.41;4877740;28;97897;-75
2023/08/18 04:20:50;;;;;;;;;;;;;;;21.22;45.53;100821.00;4848360;28;98174;-73
2023/08/18 04:23:16;;;;;;;;;;;;;;;21.24;45.58;100816.81;4851322;28;99637;-72
2023/08/18 04:25:44;;;;;;;;;;;;;;;21.27;45.63;100829.88;4854774;28;101184;-72
2023/08/18 04:28:10;;;;;;;;;;;;;;;21.29;45.64;100826.78;4843070;28;98513;-75
2023/08/18 04:30:37;;;;;;;;;;;;;;;21.31;45.61;100832.75;4866050;28;98136;-72
2023/08/18 04:33:03;;;;;;;;;;;;;;;21.32;45.50;100829.69;4859837;28;98177;-75
2023/08/18 04:35:29;;;;;;;;;;;;;;;21.36;45.47;100838.06;4867743;28;98384;-75
2023/08/18 04:37:56;;;;;;;;;;;;;;;21.41;45.61;100826.91;4860142;28;97945;-73
2023/08/18 04:40:23;;;;;;;;;;;;;;;21.46;45.57;100845.94;4865157;28;98140;-75
2023/08/18 04:42:49;;;;;;;;;;;;;;;21.48;45.57;100842.84;4864363;28;98128;-76
2023/08/18 04:45:16;;;;;;;;;;;;;;;21.51;45.52;100844.94;4866503;28;100616;-76
2023/08/18 04:47:42;;;;;;;;;;;;;;;21.54;45.44;100849.75;4850631;28;98318;-70
2023/08/18 04:50:09;;;;;;;;;;;;;;;21.58;45.37;100849.91;4854390;28;97961;-68
2023/08/18 04:52:36;;;;;;;;;;;;;;;21.60;45.45;100847.59;4866457;28;98906;-68
2023/08/18 04:55:02;;;;;;;;;;;;;;;21.63;45.50;100849.69;4873599;28;98489;-75
2023/08/18 04:57:28;;;;;;;;;;;;;;;21.62;45.50;100845.34;4876607;28;98169;-75
2023/08/18 04:59:54;;;;;;;;;;;;;;;21.59;45.50;100848.75;4856068;28;97933;-69
2023/08/18 05:02:20;;;;;;;;;;;;;;;21.58;45.45;100836.19;4860403;28;98200;-68
2023/08/18 05:04:47;;;;;;;;;;;;;;;21.59;45.50;100849.56;4857311;28;98020;-74
2023/08/18 05:07:13;;;;;;;;;;;;;;;21.62;45.39;100839.88;4850019;28;99219;-74
2023/08/18 05:09:41;;;;;;;;;;;;;;;21.66;45.50;100846.28;4870436;28;98375;-75
2023/08/18 05:12:08;;;;;;;;;;;;;;;21.67;45.39;100843.19;4853211;28;98140;-68
2023/08/18 05:14:34;;;;;;;;;;;;;;;21.68;45.48;100846.75;4879719;28;98673;-75
2023/08/18 05:17:01;;;;;;;;;;;;;;;21.70;45.47;100852.72;4848126;28;98172;-74
2023/08/18 05:19:28;;;;;;;;;;;;;;;21.71;45.42;100849.63;4865897;28;99165;-67
2023/08/18 05:21:54;;;;;;;;;;;;;;;21.73;45.38;100849.28;4888060;28;98375;-73
2023/08/18 05:24:20;;;;;;;;;;;;;;;21.75;45.33;100847.81;4886654;28;99207;-74
2023/08/18 05:26:47;;;;;;;;;;;;;;;21.78;45.47;100838.13;4879078;28;98094;-68
2023/08/18 05:29:13;;;;;;;;;;;;;;;21.76;45.37;100834.91;4882306;28;98812;-74
2023/08/18 05:31:40;;;;;;;;;;;;;;;21.77;45.35;100833.75;4871852;28;99569;-74
2023/08/18 05:34:07;;;;;;;;;;;;;;;21.81;45.43;100827.31;4898780;28;99045;-74
2023/08/18 05:36:34;;;;;;;;;;;;;;;21.86;45.34;100828.22;4881822;28;98510;-74
2023/08/18 05:39:00;;;;;;;;;;;;;;;21.86;45.33;100826.28;4863027;28;98502;-74
2023/08/18 05:41:26;;;;;;;;;;;;;;;21.87;45.31;100833.38;4862319;28;98410;-68
2023/08/18 05:43:53;;;;;;;;;;;;;;;21.92;45.27;100832.38;4863344;28;98244;-74
2023/08/18 05:46:19;;;;;;;;;;;;;;;21.96;45.38;100825.88;4881974;28;99706;-75
2023/08/18 05:48:45;;;;;;;;;;;;;;;21.99;45.29;100830.69;4867075;28;98303;-75
2023/08/18 05:51:11;;;;;;;;;;;;;;;22.03;45.41;100831.63;4865098;28;98175;-75
2023/08/18 05:53:38;;;;;;;;;;;;;;;22.07;45.16;100834.50;4876834;28;100411;-74
2023/08/18 05:56:04;;;;;;;;;;;;;;;22.11;45.23;100838.19;4880096;28;98425;-69
2023/08/18 05:58:31;;;;;;;;;;;;;;;22.12;45.17;100845.28;4883838;28;100363;-74
2023/08/18 06:00:57;;;;;;;;;;;;;;;22.14;45.38;100844.97;4882445;28;98008;-69
2023/08/18 06:03:23;;;;;;;;;;;;;;;22.22;45.13;100846.84;4857314;28;98137;-75
2023/08/18 06:05:50;;;;;;;;;;;;;;;22.26;45.14;100847.78;4883211;28;98555;-69
2023/08/18 06:08:17;;;;;;;;;;;;;;;22.27;45.30;100843.88;4881446;28;99715;-69
2023/08/18 06:10:43;;;;;;;;;;;;;;;22.32;45.22;100838.19;4887176;28;98580;-68
2023/08/18 06:13:10;;;;;;;;;;;;;;;22.42;44.97;100851.50;4878616;28;98134;-75
2023/08/18 06:15:36;;;;;;;;;;;;;;;22.49;45.19;100850.97;4867680;28;98046;-68
2023/08/18 06:18:02;;;;;;;;;;;;;;;22.51;44.97;100845.91;4868373;28;98403;-68
2023/08/18 06:20:29;;;;;;;;;;;;;;;22.59;44.97;100844.22;4882753;28;98200;-74
2023/08/18 06:22:56;;;;;;;;;;;;;;;22.65;45.00;100835.44;4846986;28;98354;-74
2023/08/18 06:25:23;;;;;;;;;;;;;;;22.71;44.95;100847.00;4862280;28;100947;-68
2023/08/18 06:27:50;;;;;;;;;;;;;;;22.76;44.95;100844.84;4880370;28;98074;-74
2023/08/18 06:30:16;;;;;;;;;;;;;;;22.82;44.77;100841.88;4871544;28;97908;-68
2023/08/18 06:32:43;;;;;;;;;;;;;;;22.85;44.82;100841.19;4865850;28;98096;-74
2023/08/18 06:35:10;;;;;;;;;;;;;;;22.88;44.96;100837.78;4880061;28;100437;-69
2023/08/18 06:37:36;;;;;;;;;;;;;;;22.91;44.95;100845.34;4865136;28;99072;-73
2023/08/18 06:40:06;;;;;;;;;;;;;;;22.95;44.89;100846.25;4868699;28;100022;-69
2023/08/18 06:42:33;;;;;;;;;;;;;;;23.02;44.79;100839.06;4865865;28;106252;-73
2023/08/18 06:45:01;;;;;;;;;;;;;;;23.11;44.92;100843.66;4885199;28;98330;-70
2023/08/18 06:47:27;;;;;;;;;;;;;;;23.26;44.78;100852.03;4853638;28;98178;-73
2023/08/18 06:49:53;;;;;;;;;;;;;;;23.41;44.60;100846.97;4862229;28;98479;-70
2023/08/18 06:52:20;;;;;;;;;;;;;;;23.46;44.44;100838.47;4852169;28;99068;-72
2023/08/18 06:54:47;;;;;;;;;;;;;;;23.57;44.42;100839.63;4884609;28;99775;-70
2023/08/18 06:57:13;;;;;;;;;;;;;;;23.68;44.37;100839.97;4883108;28;98178;-74
2023/08/18 06:59:40;;;;;;;;;;;;;;;23.74;44.43;100838.59;4862668;28;99799;-73
2023/08/18 07:02:07;;;;;;;;;;;;;;;23.73;44.56;100840.53;4865301;28;100312;-69
2023/08/18 07:04:33;;;;;;;;;;;;;;;23.73;44.45;100842.50;4864053;28;98199;-70
2023/08/18 07:06:59;;;;;;;;;;;;;;;23.85;44.67;100842.44;4890854;28;98110;-70
2023/08/18 07:09:26;;;;;;;;;;;;;;;24.04;44.24;100830.81;4867694;28;99173;-70
2023/08/18 07:11:52;;;;;;;;;;;;;;;24.25;44.20;100834.19;4850311;28;98240;-70
2023/08/18 07:14:18;;;;;;;;;;;;;;;24.49;44.08;100829.75;4882188;28;98461;-73
2023/08/18 07:16:45;;;;;;;;;;;;;;;24.69;43.92;100828.72;4882595;28;98364;-74
2023/08/18 07:19:12;;;;;;;;;;;;;;;24.80;44.06;100829.00;4866370;28;99113;-70
2023/08/18 07:21:38;;;;;;;;;;;;;;;24.83;43.71;100832.97;4863002;28;103810;-70
2023/08/18 07:24:04;;;;;;;;;;;;;;;24.93;43.89;100830.50;4881873;28;98684;-70
2023/08/18 07:26:31;;;;;;;;;;;;;;;25.06;43.86;100824.88;4896499;28;98140;-74
2023/08/18 07:28:58;;;;;;;;;;;;;;;25.20;43.65;100830.78;4867062;28;98849;-70
2023/08/18 07:31:25;;;;;;;;;;;;;;;25.28;44.08;100840.03;4861127;28;98430;-73
2023/08/18 07:33:52;;;;;;;;;;;;;;;25.29;43.78;100842.41;4868064;28;98366;-70
2023/08/18 07:36:18;;;;;;;;;;;;;;;25.25;44.24;100844.28;4850255;28;98474;-70
2023/08/18 07:38:46;;;;;;;;;;;;;;;25.25;44.09;100843.50;4866387;28;98431;-74
2023/08/18 07:41:13;;;;;;;;;;;;;;;25.25;44.25;100846.25;4868397;28;98191;-74
2023/08/18 07:43:39;;;;;;;;;;;;;;;25.21;44.32;100851.69;4873225;28;98430;-73
2023/08/18 07:46:06;;;;;;;;;;;;;;;25.24;44.11;100853.72;4877146;28;98291;-70
2023/08/18 07:48:32;;;;;;;;;;;;;;;25.44;44.18;100846.31;4858332;28;98432;-70
2023/08/18 07:50:59;;;;;;;;;;;;;;;25.67;44.00;100851.97;4866879;28;100612;-73
2023/08/18 07:53:26;;;;;;;;;;;;;;;25.74;43.76;100851.31;4874961;28;99129;-73
2023/08/18 07:55:53;;;;;;;;;;;;;;;25.70;44.07;100851.22;4863607;28;98234;-70
2023/08/18 07:58:20;;;;;;;;;;;;;;;25.70;43.88;100857.56;4878028;28;98594;-73
2023/08/18 08:00:48;;;;;;;;;;;;;;;25.79;44.09;100857.38;4851759;28;98441;-73
2023/08/18 08:03:14;;;;;;;;;;;;;;;26.01;43.69;100857.84;4890778;28;98331;-73
2023/08/18 08:05:40;;;;;;;;;;;;;;;26.18;43.74;100849.94;4896879;28;100326;-74
2023/08/18 08:08:08;;;;;;;;;;;;;;;26.21;43.83;100859.44;4860439;28;98787;-73
2023/08/18 08:10:34;;;;;;;;;;;;;;;26.28;43.59;100856.00;4867383;28;98303;-70
2023/08/18 08:13:02;;;;;;;;;;;;;;;26.35;43.79;100845.91;4883519;28;98685;-73
2023/08/18 08:15:29;;;;;;;;;;;;;;;26.38;43.75;100850.72;4867557;28;98285;-70
2023/08/18 08:17:56;;;;;;;;;;;;;;;26.46;43.65;100846.16;4855459;28;98238;-73
2023/08/18 08:20:24;;;;;;;;;;;;;;;26.68;43.59;100847.31;4867908;28;98138;-70
2023/08/18 08:22:50;;;;;;;;;;;;;;;27.13;43.14;100852.09;4883920;28;98517;-70
2023/08/18 08:25:17;;;;;;;;;;;;;;;27.26;42.89;100858.22;4874382;28;116777;-69
2023/08/18 08:27:43;;;;;;;;;;;;;;;27.24;43.18;100857.00;4870074;28;98541;-75
2023/08/18 08:30:11;;;;;;;;;;;;;;;27.21;43.24;100858.53;4891149;28;98401;-74
2023/08/18 08:32:37;;;;;;;;;;;;;;;27.10;43.40;100860.28;4889884;28;98512;-70
2023/08/18 08:35:03;;;;;;;;;;;;;;;27.00;43.61;100853.44;4877688;28;98384;-70
2023/08/18 08:37:30;;;;;;;;;;;;;;;27.10;43.65;100863.06;4888437;28;98479;-73
2023/08/18 08:39:57;;;;;;;;;;;;;;;27.29;43.38;100862.22;4868473;28;98680;-70
2023/08/18 08:42:23;;;;;;;;;;;;;;;27.82;42.63;100857.47;4893927;28;98287;-73
2023/08/18 08:44:50;;;;;;;;;;;;;;;28.52;41.92;100867.03;4893657;28;98792;-70
2023/08/18 08:47:17;;;;;;;;;;;;;;;28.31;42.72;100869.56;4872315;28;102210;-73
2023/08/18 08:49:43;;;;;;;;;;;;;;;28.35;42.69;100867.63;4882166;28;98540;-70
2023/08/18 08:52:11;;;;;;;;;;;;;;;28.45;42.62;100866.97;4854848;28;98606;-70
2023/08/18 08:54:39;;;;;;;;;;;;;;;28.55;42.83;100871.84;4871176;28;98440;-69
2023/08/18 08:57:06;;;;;;;;;;;;;;;28.91;42.52;100865.84;4888433;28;98456;-73
2023/08/18 08:59:32;;;;;;;;;;;;;;;29.24;41.99;100867.72;4881755;28;98309;-73
2023/08/18 09:01:58;;;;;;;;;;;;;;;30.13;41.29;100861.91;4884700;28;98175;-74
2023/08/18 09:04:24;;;;;;;;;;;;;;;33.16;38.37;100866.09;4888224;28;98186;-70
2023/08/18 09:06:50;;;;;;;;;;;;;;;34.48;37.61;100861.00;4887601;28;98325;-74
2023/08/18 09:09:18;;;;;;;;;;;;;;;34.31;38.28;100855.25;4888462;28;100885;-70
2023/08/18 09:11:47;;;;;;;;;;;;;;;36.37;36.72;100860.38;4868329;28;98085;-75
2023/08/18 09:14:14;;;;;;;;;;;;;;;36.59;36.97;100858.69;4870234;28;98347;-70
2023/08/18 09:16:42;;;;;;;;;;;;;;;34.74;39.26;100846.22;4875665;28;98467;-74
2023/08/18 09:19:14;;;;;;;;;;;;;;;33.81;40.42;100843.91;4897902;28;98017;-74
2023/08/18 09:21:41;;;;;;;;;;;;;;;33.46;40.42;100826.34;4867276;28;98413;-71
2023/08/18 09:24:08;;;;;;;;;;;;;;;35.86;38.22;100840.25;4884852;28;98312;-71
2023/08/18 09:26:34;;;;;;;;;;;;;;;36.38;37.78;100843.09;4872823;28;98177;-75
2023/08/18 09:29:02;;;;;;;;;;;;;;;37.02;37.68;100842.81;4879319;28;99681;-70
2023/08/18 09:31:30;;;;;;;;;;;;;;;37.53;37.30;100840.28;4862719;28;97910;-75
2023/08/18 09:33:56;;;;;;;;;;;;;;;37.81;37.58;100833.84;4884220;28;98115;-75
2023/08/18 09:36:22;;;;;;;;;;;;;;;38.24;37.21;100840.22;4884088;28;98107;-70
2023/08/18 09:38:48;;;;;;;;;;;;;;;39.51;36.17;100842.06;4886909;28;98407;-70
2023/08/18 09:41:15;;;;;;;;;;;;;;;40.51;35.51;100843.88;4864584;28;98093;-69
2023/08/18 09:44:01;;;;;;;;;;;;;;;41.31;35.11;100842.97;4870645;28;98594;-74
2023/08/18 09:46:30;;;;;;;;;;;;;;;39.74;37.11;100838.81;4868425;28;98957;-69
2023/08/18 09:48:57;;;;;;;;;;;;;;;41.00;35.72;100842.34;4863677;28;98242;-69
2023/08/18 09:51:24;;;;;;;;;;;;;;;41.82;35.03;100830.22;4883844;28;98060;-75
2023/08/18 09:54:00;;;;;;;;;;;;;;;42.16;35.54;100837.50;4862910;28;98165;-69
2023/08/18 09:56:29;;;;;;;;;;;;;;;42.61;35.33;100830.06;4895153;28;119485;-75
2023/08/18 09:59:20;;;;;;;;;;;;;;;43.32;34.89;100825.66;4849256;28;98563;-75
2023/08/18 10:01:48;;;;;;;;;;;;;;;43.61;34.80;100824.91;4874179;28;99042;-74
2023/08/18 10:04:14;;;;;;;;;;;;;;;44.14;34.50;100829.69;4866857;28;98305;-69
2023/08/18 10:06:40;;;;;;;;;;;;;;;44.42;34.55;100821.63;4883710;28;99474;-75
2023/08/18 10:09:07;;;;;;;;;;;;;;;44.75;34.54;100823.38;4869800;28;98185;-69
2023/08/18 10:11:35;;;;;;;;;;;;;;;45.16;34.21;100814.81;4868303;28;98115;-69
2023/08/18 10:14:02;;;;;;;;;;;;;;;45.44;34.26;100810.25;4847674;28;99492;-76
2023/08/18 10:16:29;;;;;;;;;;;;;;;45.54;34.16;100799.47;4869852;28;99551;-76
2023/08/18 10:18:56;;;;;;;;;;;;;;;45.76;34.52;100805.34;4865517;28;98839;-75
2023/08/18 10:21:28;;;;;;;;;;;;;;;46.16;34.03;100797.13;4861852;28;98263;-74
2023/08/18 10:23:54;;;;;;;;;;;;;;;46.40;34.35;100797.53;4867916;28;98536;-75
2023/08/18 10:26:24;;;;;;;;;;;;;;;46.36;34.14;100799.84;4880751;28;98505;-68
2023/08/18 10:28:51;;;;;;;;;;;;;;;46.25;34.63;100800.56;4866897;28;98996;-76
2023/08/18 10:31:17;;;;;;;;;;;;;;;45.99;34.81;100789.25;4881597;28;98534;-69
2023/08/18 10:33:52;;;;;;;;;;;;;;;45.83;35.22;100789.91;4892930;28;98245;-68
2023/08/18 10:36:24;;;;;;;;;;;;;;;45.89;35.02;100789.94;4866342;28;98529;-75
2023/08/18 10:38:52;;;;;;;;;;;;;;;46.28;34.51;100786.59;4862060;28;99972;-68
2023/08/18 10:41:25;;;;;;;;;;;;;;;46.48;34.44;100789.28;4860975;28;99666;-74
2023/08/18 10:43:56;;;;;;;;;;;;;;;46.57;34.33;100785.44;4867278;28;99262;-75
2023/08/18 10:46:32;;;;;;;;;;;;;;;46.35;35.19;100783.28;4869728;28;98078;-68
2023/08/18 10:48:58;;;;;;;;;;;;;;;46.53;34.53;100784.91;4884205;28;99085;-74
2023/08/18 10:51:24;;;;;;;;;;;;;;;46.54;34.74;100778.72;4865768;28;98711;-75
2023/08/18 10:53:51;;;;;;;;;;;;;;;46.27;35.31;100771.59;4876280;28;98441;-69
2023/08/18 10:56:17;;;;;;;;;;;;;;;45.62;35.52;100774.97;4868405;28;98449;-68
2023/08/18 10:58:43;;;;;;;;;;;;;;;45.43;35.50;100765.22;4866135;28;99522;-75
2023/08/18 11:01:10;;;;;;;;;;;;;;;45.37;35.87;100761.53;4881885;28;99240;-75
2023/08/18 11:03:39;;;;;;;;;;;;;;;45.25;35.85;100763.50;4861266;28;98699;-75
2023/08/18 11:06:05;;;;;;;;;;;;;;;45.47;35.38;100766.56;4867749;28;110745;-69
2023/08/18 11:08:31;;;;;;;;;;;;;;;45.51;35.36;100750.06;4880465;28;98336;-75
2023/08/18 11:10:57;;;;;;;;;;;;;;;45.37;35.56;100753.78;4852562;28;110815;-69
2023/08/18 11:13:25;;;;;;;;;;;;;;;45.37;35.74;100753.00;4881550;28;98405;-68
2023/08/18 11:15:52;;;;;;;;;;;;;;;45.41;35.27;100762.09;4869453;28;98370;-74
2023/08/18 11:18:19;;;;;;;;;;;;;;;45.25;35.75;100750.06;4826540;28;98847;-68
2023/08/18 11:20:45;;;;;;;;;;;;;;;45.04;35.78;100739.97;4865223;28;98943;-74
2023/08/18 11:23:11;;;;;;;;;;;;;;;44.76;35.96;100748.97;4859495;28;98258;-74
2023/08/18 11:25:39;;;;;;;;;;;;;;;44.16;36.62;100741.19;4859058;28;98404;-75
2023/08/18 11:28:05;;;;;;;;;;;;;;;43.77;36.75;100736.47;4858809;28;98313;-67
2023/08/18 11:30:32;;;;;;;;;;;;;;;43.65;36.96;100742.44;4876677;28;98377;-74
2023/08/18 11:32:58;;;;;;;;;;;;;;;43.50;37.15;100739.63;4859375;28;98652;-73
2023/08/18 11:35:25;;;;;;;;;;;;;;;43.44;36.87;100739.50;4861557;28;98844;-67
2023/08/18 11:37:52;;;;;;;;;;;;;;;43.44;37.19;100742.34;4878602;28;98488;-74
2023/08/18 11:40:19;;;;;;;;;;;;;;;43.55;36.83;100733.28;4860615;28;98737;-67
2023/08/18 11:42:46;;;;;;;;;;;;;;;43.50;36.98;100734.72;4843401;28;98075;-73
2023/08/18 11:45:15;;;;;;;;;;;;;;;43.38;37.10;100724.44;4881036;28;120345;-67
2023/08/18 11:47:42;;;;;;;;;;;;;;;43.37;37.03;100725.72;4865280;28;98388;-67
2023/08/18 11:50:09;;;;;;;;;;;;;;;43.30;37.12;100721.22;4872238;28;98369;-75
2023/08/18 11:52:45;;;;;;;;;;;;;;;43.22;37.05;100714.38;4863345;28;98639;-74
2023/08/18 11:55:12;;;;;;;;;;;;;;;43.07;36.91;100719.25;4883421;28;98057;-68
2023/08/18 11:57:41;;;;;;;;;;;;;;;42.98;37.26;100710.81;4864546;28;98352;-67
2023/08/18 12:00:14;;;;;;;;;;;;;;;42.92;37.20;100710.72;4878279;28;98083;-74
2023/08/18 12:02:43;;;;;;;;;;;;;;;42.84;37.54;100712.34;4861585;28;98570;-67
2023/08/18 12:05:23;;;;;;;;;;;;;;;42.77;37.31;100705.03;4841432;28;98680;-74
2023/08/18 12:07:52;;;;;;;;;;;;;;;41.45;38.57;100697.38;4852595;28;100867;-74
2023/08/18 12:10:22;;;;;;;;;;;;;;;41.19;38.69;100703.41;4857347;28;98244;-69
2023/08/18 12:12:56;;;;;;;;;;;;;;;41.52;38.34;100704.75;4851916;28;98533;-68
2023/08/18 12:15:25;;;;;;;;;;;;;;;41.56;38.24;100706.13;4862039;28;98747;-68
2023/08/18 12:17:51;;;;;;;;;;;;;;;40.31;39.61;100702.38;4856578;28;98177;-68
2023/08/18 12:20:21;;;;;;;;;;;;;;;39.82;39.71;100715.22;4866404;28;98393;-74
2023/08/18 12:22:50;;;;;;;;;;;;;;;40.05;39.24;100711.09;4888411;28;98008;-75
2023/08/18 12:25:17;;;;;;;;;;;;;;;40.35;38.73;100712.28;4880935;28;98462;-68
2023/08/18 12:27:47;;;;;;;;;;;;;;;40.45;38.45;100721.56;4907843;28;98005;-74
2023/08/18 12:30:14;;;;;;;;;;;;;;;40.61;38.45;100720.50;4881157;28;98709;-74
2023/08/18 12:32:43;;;;;;;;;;;;;;;40.71;38.57;100707.94;4882229;28;98275;-67
2023/08/18 12:35:10;;;;;;;;;;;;;;;40.73;38.27;100711.88;4881159;28;98306;-68
2023/08/18 12:37:36;;;;;;;;;;;;;;;40.77;38.44;100716.59;4874054;28;99400;-67